sensor_id;sensor_type;location;lat;lon;timestamp;pressure;altitude;pressure_sealevel;temperature;humidity
78909;BME280;68298;37.368;127.108;2023-04-20T00:00:48;100027.41;;;19.54;61.73
78909;BME280;68298;37.368;127.108;2023-04-20T00:03:19;100025.63;;;19.54;61.77
78909;BME280;68298;37.368;127.108;2023-04-20T00:05:50;100028.13;;;19.56;61.74
78909;BME280;68298;37.368;127.108;2023-04-20T00:08:21;100038.50;;;19.57;62.04
78909;BME280;68298;37.368;127.108;2023-04-20T00:10:51;100041.97;;;19.58;62.22
78909;BME280;68298;37.368;127.108;2023-04-20T00:13:21;100045.41;;;19.58;62.01
78909;BME280;68298;37.368;127.108;2023-04-20T00:15:53;100051.44;;;19.60;61.92
78909;BME280;68298;37.368;127.108;2023-04-20T00:18:23;100038.28;;;19.60;62.11
78909;BME280;68298;37.368;127.108;2023-04-20T00:20:54;100023.34;;;19.61;61.97
78909;BME280;68298;37.368;127.108;2023-04-20T00:23:25;100026.94;;;19.60;62.50
78909;BME280;68298;37.368;127.108;2023-04-20T00:25:56;100018.09;;;19.61;62.20
78909;BME280;68298;37.368;127.108;2023-04-20T00:28:26;100015.56;;;19.59;62.35
78909;BME280;68298;37.368;127.108;2023-04-20T00:30:57;100008.63;;;19.58;61.29
78909;BME280;68298;37.368;127.108;2023-04-20T00:33:27;100009.47;;;19.59;61.85
78909;BME280;68298;37.368;127.108;2023-04-20T00:36:00;100020.13;;;19.57;61.38
78909;BME280;68298;37.368;127.108;2023-04-20T00:38:31;100032.28;;;19.58;60.86
78909;BME280;68298;37.368;127.108;2023-04-20T00:41:01;100024.41;;;19.58;61.19
78909;BME280;68298;37.368;127.108;2023-04-20T00:43:33;100027.03;;;19.58;61.00
78909;BME280;68298;37.368;127.108;2023-04-20T00:46:04;100031.31;;;19.59;61.29
78909;BME280;68298;37.368;127.108;2023-04-20T00:48:36;100027.84;;;19.59;61.26
78909;BME280;68298;37.368;127.108;2023-04-20T00:51:07;100028.69;;;19.59;60.65
78909;BME280;68298;37.368;127.108;2023-04-20T00:53:38;100021.69;;;19.60;61.10
78909;BME280;68298;37.368;127.108;2023-04-20T00:56:24;100030.47;;;19.59;60.63
78909;BME280;68298;37.368;127.108;2023-04-20T00:58:55;100030.47;;;19.59;60.44
78909;BME280;68298;37.368;127.108;2023-04-20T01:01:38;100029.56;;;19.60;60.07
78909;BME280;68298;37.368;127.108;2023-04-20T01:04:21;100025.97;;;19.61;60.39
78909;BME280;68298;37.368;127.108;2023-04-20T01:06:52;100023.34;;;19.61;59.75
78909;BME280;68298;37.368;127.108;2023-04-20T01:09:22;100026.81;;;19.61;60.25
78909;BME280;68298;37.368;127.108;2023-04-20T01:12:08;100026.81;;;19.61;60.39
78909;BME280;68298;37.368;127.108;2023-04-20T01:14:38;100026.81;;;19.61;59.54
78909;BME280;68298;37.368;127.108;2023-04-20T01:17:12;100017.97;;;19.62;59.80
78909;BME280;68298;37.368;127.108;2023-04-20T01:19:56;100025.00;;;19.62;60.79
78909;BME280;68298;37.368;127.108;2023-04-20T01:22:46;100023.22;;;19.62;59.60
78909;BME280;68298;37.368;127.108;2023-04-20T01:25:17;100023.06;;;19.64;59.22
78909;BME280;68298;37.368;127.108;2023-04-20T01:27:51;100028.47;;;19.62;60.04
78909;BME280;68298;37.368;127.108;2023-04-20T01:30:36;100025.69;;;19.64;59.62
78909;BME280;68298;37.368;127.108;2023-04-20T01:33:07;100023.06;;;19.64;59.46
78909;BME280;68298;37.368;127.108;2023-04-20T01:35:52;100027.50;;;19.63;59.73
78909;BME280;68298;37.368;127.108;2023-04-20T01:38:23;100031.81;;;19.64;59.35
78909;BME280;68298;37.368;127.108;2023-04-20T01:41:07;100030.97;;;19.64;59.55
78909;BME280;68298;37.368;127.108;2023-04-20T01:43:52;100032.50;;;19.66;59.32
78909;BME280;68298;37.368;127.108;2023-04-20T01:46:38;100023.81;;;19.66;59.60
78909;BME280;68298;37.368;127.108;2023-04-20T01:49:21;100027.25;;;19.66;59.47
78909;BME280;68298;37.368;127.108;2023-04-20T01:52:04;100022.00;;;19.66;59.62
78909;BME280;68298;37.368;127.108;2023-04-20T01:54:48;100026.28;;;19.67;59.73
78909;BME280;68298;37.368;127.108;2023-04-20T01:57:18;100024.38;;;19.69;60.17
78909;BME280;68298;37.368;127.108;2023-04-20T02:00:02;100033.78;;;19.72;60.37
78909;BME280;68298;37.368;127.108;2023-04-20T02:02:40;100031.88;;;19.74;60.54
78909;BME280;68298;37.368;127.108;2023-04-20T02:05:11;100036.16;;;19.75;60.77
78909;BME280;68298;37.368;127.108;2023-04-20T02:07:41;100037.00;;;19.76;60.78
78909;BME280;68298;37.368;127.108;2023-04-20T02:10:14;100039.47;;;19.77;61.63
78909;BME280;68298;37.368;127.108;2023-04-20T02:12:44;100030.63;;;19.78;61.29
78909;BME280;68298;37.368;127.108;2023-04-20T02:15:22;100024.44;;;19.79;61.21
78909;BME280;68298;37.368;127.108;2023-04-20T02:18:05;100021.66;;;19.81;61.56
78909;BME280;68298;37.368;127.108;2023-04-20T02:20:36;100027.50;;;19.84;62.15
78909;BME280;68298;37.368;127.108;2023-04-20T02:23:06;100019.72;;;19.83;61.56
78909;BME280;68298;37.368;127.108;2023-04-20T02:25:49;100020.56;;;19.83;61.76
78909;BME280;68298;37.368;127.108;2023-04-20T02:28:33;100008.28;;;19.84;61.82
78909;BME280;68298;37.368;127.108;2023-04-20T02:31:16;100010.75;;;19.85;61.74
78909;BME280;68298;37.368;127.108;2023-04-20T02:33:59;100011.59;;;19.86;61.10
78909;BME280;68298;37.368;127.108;2023-04-20T02:36:42;100003.84;;;19.84;61.04
78909;BME280;68298;37.368;127.108;2023-04-20T02:39:26;100003.72;;;19.86;61.51
78909;BME280;68298;37.368;127.108;2023-04-20T02:42:09;100015.06;;;19.86;60.83
78909;BME280;68298;37.368;127.108;2023-04-20T02:44:41;100010.63;;;19.87;61.18
78909;BME280;68298;37.368;127.108;2023-04-20T02:47:24;100011.59;;;19.86;61.12
78909;BME280;68298;37.368;127.108;2023-04-20T02:50:09;100019.47;;;19.86;61.46
78909;BME280;68298;37.368;127.108;2023-04-20T02:53:04;100012.41;;;19.86;60.82
78909;BME280;68298;37.368;127.108;2023-04-20T02:55:55;100003.72;;;19.86;60.76
78909;BME280;68298;37.368;127.108;2023-04-20T02:58:43;99999.41;;;19.85;61.27
78909;BME280;68298;37.368;127.108;2023-04-20T03:01:46;99971.34;;;19.85;61.04
78909;BME280;68298;37.368;127.108;2023-04-20T03:04:29;99972.16;;;19.86;60.86
78909;BME280;68298;37.368;127.108;2023-04-20T03:07:19;99974.78;;;19.86;60.47
78909;BME280;68298;37.368;127.108;2023-04-20T03:10:05;99967.59;;;19.88;59.80
78909;BME280;68298;37.368;127.108;2023-04-20T03:12:56;99962.34;;;19.88;60.00
78909;BME280;68298;37.368;127.108;2023-04-20T03:15:52;99962.22;;;19.89;61.02
78909;BME280;68298;37.368;127.108;2023-04-20T03:18:48;99961.09;;;19.92;61.77
78909;BME280;68298;37.368;127.108;2023-04-20T03:21:19;99954.88;;;19.93;62.75
78909;BME280;68298;37.368;127.108;2023-04-20T03:23:50;99954.63;;;19.96;62.24
78909;BME280;68298;37.368;127.108;2023-04-20T03:26:20;99957.97;;;19.98;63.04
78909;BME280;68298;37.368;127.108;2023-04-20T03:29:11;99947.31;;;19.99;63.04
78909;BME280;68298;37.368;127.108;2023-04-20T03:31:43;99955.06;;;20.01;63.56
78909;BME280;68298;37.368;127.108;2023-04-20T03:34:14;99949.53;;;20.04;63.96
78909;BME280;68298;37.368;127.108;2023-04-20T03:36:45;99947.75;;;20.05;64.18
78909;BME280;68298;37.368;127.108;2023-04-20T03:39:15;99940.53;;;20.07;64.66
78909;BME280;68298;37.368;127.108;2023-04-20T03:41:47;99950.81;;;20.10;64.71
78909;BME280;68298;37.368;127.108;2023-04-20T03:44:17;99939.47;;;20.09;64.14
78909;BME280;68298;37.368;127.108;2023-04-20T03:46:48;99929.75;;;20.10;64.43
78909;BME280;68298;37.368;127.108;2023-04-20T03:49:22;99916.63;;;20.10;65.07
78909;BME280;68298;37.368;127.108;2023-04-20T03:51:54;99905.97;;;20.11;64.22
78909;BME280;68298;37.368;127.108;2023-04-20T03:54:24;99898.78;;;20.13;64.07
78909;BME280;68298;37.368;127.108;2023-04-20T03:56:55;99889.25;;;20.12;64.28
78909;BME280;68298;37.368;127.108;2023-04-20T03:59:27;99891.16;;;20.10;64.57
78909;BME280;68298;37.368;127.108;2023-04-20T04:01:59;99890.31;;;20.10;63.66
78909;BME280;68298;37.368;127.108;2023-04-20T04:04:30;99882.28;;;20.11;64.67
78909;BME280;68298;37.368;127.108;2023-04-20T04:07:01;99880.50;;;20.12;64.20
78909;BME280;68298;37.368;127.108;2023-04-20T04:09:32;99874.97;;;20.15;64.20
78909;BME280;68298;37.368;127.108;2023-04-20T04:12:02;99876.63;;;20.16;64.92
78909;BME280;68298;37.368;127.108;2023-04-20T04:14:34;99869.44;;;20.18;64.52
78909;BME280;68298;37.368;127.108;2023-04-20T04:17:05;99868.22;;;20.22;64.88
78909;BME280;68298;37.368;127.108;2023-04-20T04:19:40;99869.97;;;20.21;64.34
78909;BME280;68298;37.368;127.108;2023-04-20T04:22:12;99862.81;;;20.23;65.12
78909;BME280;68298;37.368;127.108;2023-04-20T04:24:58;99877.47;;;20.26;65.18
78909;BME280;68298;37.368;127.108;2023-04-20T04:27:29;99877.59;;;20.24;64.93
78909;BME280;68298;37.368;127.108;2023-04-20T04:30:04;99886.22;;;20.27;65.29
78909;BME280;68298;37.368;127.108;2023-04-20T04:32:35;99878.31;;;20.27;64.30
78909;BME280;68298;37.368;127.108;2023-04-20T04:35:07;99877.59;;;20.24;65.00
78909;BME280;68298;37.368;127.108;2023-04-20T04:37:39;99882.59;;;20.28;64.66
78909;BME280;68298;37.368;127.108;2023-04-20T04:40:11;99879.97;;;20.28;63.93
78909;BME280;68298;37.368;127.108;2023-04-20T04:42:42;99873.06;;;20.27;63.66
78909;BME280;68298;37.368;127.108;2023-04-20T04:45:14;99874.97;;;20.24;63.82
78909;BME280;68298;37.368;127.108;2023-04-20T04:47:45;99875.97;;;20.23;63.73
78909;BME280;68298;37.368;127.108;2023-04-20T04:50:16;99880.25;;;20.24;62.95
78909;BME280;68298;37.368;127.108;2023-04-20T04:52:47;99876.78;;;20.24;62.95
78909;BME280;68298;37.368;127.108;2023-04-20T04:55:18;99875.97;;;20.23;62.54
78909;BME280;68298;37.368;127.108;2023-04-20T04:57:49;99863.78;;;20.22;62.73
78909;BME280;68298;37.368;127.108;2023-04-20T05:00:20;99866.41;;;20.22;62.50
78909;BME280;68298;37.368;127.108;2023-04-20T05:02:51;99862.09;;;20.21;62.66
78909;BME280;68298;37.368;127.108;2023-04-20T05:05:23;99860.44;;;20.20;62.60
78909;BME280;68298;37.368;127.108;2023-04-20T05:07:54;99855.19;;;20.20;62.06
78909;BME280;68298;37.368;127.108;2023-04-20T05:10:25;99856.00;;;20.21;62.45
78909;BME280;68298;37.368;127.108;2023-04-20T05:12:55;99856.84;;;20.21;62.51
78909;BME280;68298;37.368;127.108;2023-04-20T05:15:28;99859.47;;;20.21;61.54
78909;BME280;68298;37.368;127.108;2023-04-20T05:17:58;99858.63;;;20.21;62.05
78909;BME280;68298;37.368;127.108;2023-04-20T05:20:31;99860.31;;;20.22;62.23
78909;BME280;68298;37.368;127.108;2023-04-20T05:23:01;99853.38;;;20.21;61.32
78909;BME280;68298;37.368;127.108;2023-04-20T05:25:33;99857.69;;;20.22;61.67
78909;BME280;68298;37.368;127.108;2023-04-20T05:28:04;99862.94;;;20.22;61.35
78909;BME280;68298;37.368;127.108;2023-04-20T05:30:34;99854.09;;;20.23;61.65
78909;BME280;68298;37.368;127.108;2023-04-20T05:33:05;99856.72;;;20.23;61.06
78909;BME280;68298;37.368;127.108;2023-04-20T05:35:35;99848.13;;;20.21;61.29
78909;BME280;68298;37.368;127.108;2023-04-20T05:38:06;99849.81;;;20.22;61.23
78909;BME280;68298;37.368;127.108;2023-04-20T05:40:37;99846.31;;;20.21;60.87
78909;BME280;68298;37.368;127.108;2023-04-20T05:43:07;99851.47;;;20.23;60.62
78909;BME280;68298;37.368;127.108;2023-04-20T05:45:38;99835.78;;;20.21;60.14
78909;BME280;68298;37.368;127.108;2023-04-20T05:48:08;99842.75;;;20.22;60.79
78909;BME280;68298;37.368;127.108;2023-04-20T05:50:39;99834.84;;;20.22;61.07
78909;BME280;68298;37.368;127.108;2023-04-20T05:53:10;99841.06;;;20.21;60.65
78909;BME280;68298;37.368;127.108;2023-04-20T05:55:41;99847.16;;;20.22;60.41
78909;BME280;68298;37.368;127.108;2023-04-20T05:58:12;99839.28;;;20.22;60.88
78909;BME280;68298;37.368;127.108;2023-04-20T06:00:43;99846.31;;;20.21;59.96
78909;BME280;68298;37.368;127.108;2023-04-20T06:03:13;99840.22;;;20.21;59.92
78909;BME280;68298;37.368;127.108;2023-04-20T06:05:44;99842.84;;;20.21;60.93
78909;BME280;68298;37.368;127.108;2023-04-20T06:08:15;99840.22;;;20.21;59.83
78909;BME280;68298;37.368;127.108;2023-04-20T06:10:55;99834.97;;;20.21;60.29
78909;BME280;68298;37.368;127.108;2023-04-20T06:13:26;99827.06;;;20.21;59.85
78909;BME280;68298;37.368;127.108;2023-04-20T06:15:57;99826.13;;;20.22;60.75
78909;BME280;68298;37.368;127.108;2023-04-20T06:18:27;99822.66;;;20.21;60.64
78909;BME280;68298;37.368;127.108;2023-04-20T06:20:58;99827.91;;;20.21;59.67
78909;BME280;68298;37.368;127.108;2023-04-20T06:23:30;99821.81;;;20.21;60.39
78909;BME280;68298;37.368;127.108;2023-04-20T06:26:00;99824.44;;;20.21;60.39
78909;BME280;68298;37.368;127.108;2023-04-20T06:28:30;99816.56;;;20.21;59.35
78909;BME280;68298;37.368;127.108;2023-04-20T06:31:03;99820.88;;;20.22;60.38
78909;BME280;68298;37.368;127.108;2023-04-20T06:33:34;99808.66;;;20.21;60.00
78909;BME280;68298;37.368;127.108;2023-04-20T06:36:07;99814.75;;;20.21;60.02
78909;BME280;68298;37.368;127.108;2023-04-20T06:38:38;99806.88;;;20.21;59.92
78909;BME280;68298;37.368;127.108;2023-04-20T06:41:09;99801.59;;;20.21;59.32
78909;BME280;68298;37.368;127.108;2023-04-20T06:43:39;99796.34;;;20.21;59.11
78909;BME280;68298;37.368;127.108;2023-04-20T06:46:10;99792.88;;;20.21;59.49
78909;BME280;68298;37.368;127.108;2023-04-20T06:48:41;99793.72;;;20.21;59.77
78909;BME280;68298;37.368;127.108;2023-04-20T06:51:12;99788.44;;;20.21;58.93
78909;BME280;68298;37.368;127.108;2023-04-20T06:53:43;99784.88;;;20.22;58.98
78909;BME280;68298;37.368;127.108;2023-04-20T06:56:13;99785.72;;;20.23;59.15
78909;BME280;68298;37.368;127.108;2023-04-20T06:58:44;99793.72;;;20.21;59.27
78909;BME280;68298;37.368;127.108;2023-04-20T07:01:15;99791.94;;;20.22;59.60
78909;BME280;68298;37.368;127.108;2023-04-20T07:03:46;99799.69;;;20.23;59.06
78909;BME280;68298;37.368;127.108;2023-04-20T07:06:16;99797.19;;;20.22;59.07
78909;BME280;68298;37.368;127.108;2023-04-20T07:08:48;99801.59;;;20.21;59.03
78909;BME280;68298;37.368;127.108;2023-04-20T07:11:18;99803.41;;;20.21;59.75
78909;BME280;68298;37.368;127.108;2023-04-20T07:13:49;99804.22;;;20.21;58.72
78909;BME280;68298;37.368;127.108;2023-04-20T07:16:19;99808.66;;;20.21;59.50
78909;BME280;68298;37.368;127.108;2023-04-20T07:18:50;99798.97;;;20.21;58.85
78909;BME280;68298;37.368;127.108;2023-04-20T07:21:20;99790.41;;;20.19;58.71
78909;BME280;68298;37.368;127.108;2023-04-20T07:23:51;99787.78;;;20.19;59.12
78909;BME280;68298;37.368;127.108;2023-04-20T07:26:21;99788.75;;;20.18;58.78
78909;BME280;68298;37.368;127.108;2023-04-20T07:28:51;99794.00;;;20.18;59.13
78909;BME280;68298;37.368;127.108;2023-04-20T07:31:23;99787.09;;;20.17;58.49
78909;BME280;68298;37.368;127.108;2023-04-20T07:33:54;99787.09;;;20.17;59.20
78909;BME280;68298;37.368;127.108;2023-04-20T07:36:25;99787.09;;;20.17;58.96
78909;BME280;68298;37.368;127.108;2023-04-20T07:38:55;99778.34;;;20.17;58.89
78909;BME280;68298;37.368;127.108;2023-04-20T07:41:25;99784.59;;;20.16;58.29
78909;BME280;68298;37.368;127.108;2023-04-20T07:43:56;99788.03;;;20.16;58.94
78909;BME280;68298;37.368;127.108;2023-04-20T07:46:26;99786.38;;;20.15;59.29
78909;BME280;68298;37.368;127.108;2023-04-20T07:48:57;99786.53;;;20.14;58.41
78909;BME280;68298;37.368;127.108;2023-04-20T07:51:28;99792.63;;;20.14;58.31
78909;BME280;68298;37.368;127.108;2023-04-20T07:54:00;99790.00;;;20.14;58.23
78909;BME280;68298;37.368;127.108;2023-04-20T07:56:31;99799.53;;;20.15;58.76
78909;BME280;68298;37.368;127.108;2023-04-20T07:59:01;99795.41;;;20.13;58.91
78909;BME280;68298;37.368;127.108;2023-04-20T08:01:32;99794.56;;;20.12;58.00
78909;BME280;68298;37.368;127.108;2023-04-20T08:04:03;99805.09;;;20.12;58.29
78909;BME280;68298;37.368;127.108;2023-04-20T08:06:34;99797.19;;;20.12;58.68
78909;BME280;68298;37.368;127.108;2023-04-20T08:09:05;99804.22;;;20.12;58.30
78909;BME280;68298;37.368;127.108;2023-04-20T08:11:35;99804.38;;;20.10;58.17
78909;BME280;68298;37.368;127.108;2023-04-20T08:14:06;99809.63;;;20.10;58.70
78909;BME280;68298;37.368;127.108;2023-04-20T08:16:37;99813.25;;;20.09;58.78
78909;BME280;68298;37.368;127.108;2023-04-20T08:19:07;99820.31;;;20.09;58.38
78909;BME280;68298;37.368;127.108;2023-04-20T08:21:41;99827.22;;;20.10;58.03
78909;BME280;68298;37.368;127.108;2023-04-20T08:24:12;99828.19;;;20.09;57.82
78909;BME280;68298;37.368;127.108;2023-04-20T08:26:43;99828.19;;;20.09;58.23
78909;BME280;68298;37.368;127.108;2023-04-20T08:29:14;99830.00;;;20.08;57.84
78909;BME280;68298;37.368;127.108;2023-04-20T08:31:45;99843.13;;;20.08;57.56
78909;BME280;68298;37.368;127.108;2023-04-20T08:34:17;99845.78;;;20.08;57.81
78909;BME280;68298;37.368;127.108;2023-04-20T08:36:48;99849.34;;;20.07;57.76
78909;BME280;68298;37.368;127.108;2023-04-20T08:39:20;99859.84;;;20.07;58.38
78909;BME280;68298;37.368;127.108;2023-04-20T08:41:54;99859.03;;;20.07;57.97
78909;BME280;68298;37.368;127.108;2023-04-20T08:44:25;99860.84;;;20.06;58.42
78909;BME280;68298;37.368;127.108;2023-04-20T08:46:55;99863.59;;;20.05;58.37
78909;BME280;68298;37.368;127.108;2023-04-20T08:49:27;99861.81;;;20.05;57.69
78909;BME280;68298;37.368;127.108;2023-04-20T08:51:59;99868.03;;;20.04;58.20
78909;BME280;68298;37.368;127.108;2023-04-20T08:54:29;99869.69;;;20.05;57.75
78909;BME280;68298;37.368;127.108;2023-04-20T08:57:02;99871.50;;;20.05;58.35
78909;BME280;68298;37.368;127.108;2023-04-20T08:59:33;99866.25;;;20.05;57.53
78909;BME280;68298;37.368;127.108;2023-04-20T09:02:12;99868.03;;;20.04;57.56
78909;BME280;68298;37.368;127.108;2023-04-20T09:04:43;99874.13;;;20.05;57.37
78909;BME280;68298;37.368;127.108;2023-04-20T09:07:19;99868.03;;;20.04;57.56
78909;BME280;68298;37.368;127.108;2023-04-20T09:09:57;99873.28;;;20.04;58.06
78909;BME280;68298;37.368;127.108;2023-04-20T09:12:38;99865.56;;;20.03;57.86
78909;BME280;68298;37.368;127.108;2023-04-20T09:15:09;99862.91;;;20.03;57.75
78909;BME280;68298;37.368;127.108;2023-04-20T09:17:41;99861.13;;;20.03;57.78
78909;BME280;68298;37.368;127.108;2023-04-20T09:20:13;99860.28;;;20.03;57.12
78909;BME280;68298;37.368;127.108;2023-04-20T09:22:44;99859.44;;;20.02;57.95
78909;BME280;68298;37.368;127.108;2023-04-20T09:25:16;99859.44;;;20.02;57.32
78909;BME280;68298;37.368;127.108;2023-04-20T09:28:14;99855.16;;;20.01;57.03
78909;BME280;68298;37.368;127.108;2023-04-20T09:30:47;99858.75;;;20.00;57.88
78909;BME280;68298;37.368;127.108;2023-04-20T09:33:27;99856.13;;;20.00;57.82
78909;BME280;68298;37.368;127.108;2023-04-20T09:36:04;99871.91;;;20.00;57.48
78909;BME280;68298;37.368;127.108;2023-04-20T09:38:35;99871.22;;;19.98;57.82
78909;BME280;68298;37.368;127.108;2023-04-20T09:41:06;99873.69;;;19.99;57.66
78909;BME280;68298;37.368;127.108;2023-04-20T09:43:38;99872.88;;;19.99;57.13
78909;BME280;68298;37.368;127.108;2023-04-20T09:46:09;99876.47;;;19.98;57.97
78909;BME280;68298;37.368;127.108;2023-04-20T09:48:40;99875.75;;;19.96;57.86
78909;BME280;68298;37.368;127.108;2023-04-20T09:51:11;99881.00;;;19.96;57.15
78909;BME280;68298;37.368;127.108;2023-04-20T09:53:47;99882.00;;;19.95;57.31
78909;BME280;68298;37.368;127.108;2023-04-20T09:56:21;99883.66;;;19.96;57.21
78909;BME280;68298;37.368;127.108;2023-04-20T09:58:52;99886.28;;;19.96;57.50
78909;BME280;68298;37.368;127.108;2023-04-20T10:01:23;99897.75;;;19.95;57.71
78909;BME280;68298;37.368;127.108;2023-04-20T10:03:54;99897.75;;;19.95;57.71
78909;BME280;68298;37.368;127.108;2023-04-20T10:06:27;99903.03;;;19.95;57.89
78909;BME280;68298;37.368;127.108;2023-04-20T10:09:00;99905.78;;;19.93;57.53
78909;BME280;68298;37.368;127.108;2023-04-20T10:14:24;99917.13;;;19.94;57.73
78909;BME280;68298;37.368;127.108;2023-04-20T10:17:03;99915.44;;;19.93;57.25
78909;BME280;68298;37.368;127.108;2023-04-20T10:19:42;99915.44;;;19.93;57.62
78909;BME280;68298;37.368;127.108;2023-04-20T10:22:27;99912.81;;;19.93;57.01
78909;BME280;68298;37.368;127.108;2023-04-20T10:25:13;99920.72;;;19.93;56.97
78909;BME280;68298;37.368;127.108;2023-04-20T10:27:57;99924.31;;;19.92;57.05
78909;BME280;68298;37.368;127.108;2023-04-20T10:30:29;99933.16;;;19.91;57.34
78909;BME280;68298;37.368;127.108;2023-04-20T10:33:08;99930.53;;;19.91;57.70
78909;BME280;68298;37.368;127.108;2023-04-20T10:35:43;99937.59;;;19.90;57.69
78909;BME280;68298;37.368;127.108;2023-04-20T10:38:15;99942.03;;;19.90;57.01
78909;BME280;68298;37.368;127.108;2023-04-20T10:41:10;99947.28;;;19.90;56.98
78909;BME280;68298;37.368;127.108;2023-04-20T10:43:41;99949.91;;;19.90;56.85
78909;BME280;68298;37.368;127.108;2023-04-20T10:46:16;99945.63;;;19.89;56.87
78909;BME280;68298;37.368;127.108;2023-04-20T10:48:57;99950.06;;;19.88;57.10
78909;BME280;68298;37.368;127.108;2023-04-20T10:51:29;99951.81;;;19.88;57.37
78909;BME280;68298;37.368;127.108;2023-04-20T10:54:07;99952.78;;;19.87;57.79
78909;BME280;68298;37.368;127.108;2023-04-20T10:56:46;99958.06;;;19.87;57.21
78909;BME280;68298;37.368;127.108;2023-04-20T10:59:19;99960.69;;;19.87;57.29
78909;BME280;68298;37.368;127.108;2023-04-20T11:01:51;99963.31;;;19.87;57.93
78909;BME280;68298;37.368;127.108;2023-04-20T11:04:33;99970.22;;;19.88;57.06
78909;BME280;68298;37.368;127.108;2023-04-20T11:07:07;99969.53;;;19.86;57.00
78909;BME280;68298;37.368;127.108;2023-04-20T11:09:38;99979.22;;;19.85;57.45
78909;BME280;68298;37.368;127.108;2023-04-20T11:12:11;99979.22;;;19.85;57.23
78909;BME280;68298;37.368;127.108;2023-04-20T11:14:55;99993.19;;;19.86;57.46
78909;BME280;68298;37.368;127.108;2023-04-20T11:17:35;100004.69;;;19.85;57.39
78909;BME280;68298;37.368;127.108;2023-04-20T11:20:09;100002.88;;;19.85;57.00
78909;BME280;68298;37.368;127.108;2023-04-20T11:22:55;100013.53;;;19.84;57.39
78909;BME280;68298;37.368;127.108;2023-04-20T11:25:29;100017.00;;;19.84;57.44
78909;BME280;68298;37.368;127.108;2023-04-20T11:28:07;100022.25;;;19.84;56.92
78909;BME280;68298;37.368;127.108;2023-04-20T11:30:41;100012.66;;;19.83;57.24
78909;BME280;68298;37.368;127.108;2023-04-20T11:33:12;100018.91;;;19.82;57.08
78909;BME280;68298;37.368;127.108;2023-04-20T11:35:43;100024.16;;;19.82;57.12
78909;BME280;68298;37.368;127.108;2023-04-20T11:38:14;100022.34;;;19.83;57.18
78909;BME280;68298;37.368;127.108;2023-04-20T11:40:47;100018.91;;;19.82;57.16
78909;BME280;68298;37.368;127.108;2023-04-20T11:43:18;100019.88;;;19.81;57.00
78909;BME280;68298;37.368;127.108;2023-04-20T11:45:48;100024.16;;;19.82;56.66
78909;BME280;68298;37.368;127.108;2023-04-20T11:48:19;100032.19;;;19.81;57.19
78909;BME280;68298;37.368;127.108;2023-04-20T11:50:50;100033.97;;;19.80;56.82
78909;BME280;68298;37.368;127.108;2023-04-20T11:53:20;100042.69;;;19.81;56.81
78909;BME280;68298;37.368;127.108;2023-04-20T11:55:50;100055.00;;;19.80;57.14
78909;BME280;68298;37.368;127.108;2023-04-20T11:58:21;100049.75;;;19.80;57.41
78909;BME280;68298;37.368;127.108;2023-04-20T12:00:51;100052.53;;;19.79;56.96
78909;BME280;68298;37.368;127.108;2023-04-20T12:03:22;100048.09;;;19.79;56.98
78909;BME280;68298;37.368;127.108;2023-04-20T12:05:52;100056.91;;;19.78;57.09
78909;BME280;68298;37.368;127.108;2023-04-20T12:08:23;100050.81;;;19.78;57.20
78909;BME280;68298;37.368;127.108;2023-04-20T12:10:54;100056.09;;;19.78;57.42
78909;BME280;68298;37.368;127.108;2023-04-20T12:13:25;100061.34;;;19.78;56.92
78909;BME280;68298;37.368;127.108;2023-04-20T12:15:56;100071.03;;;19.77;57.22
78909;BME280;68298;37.368;127.108;2023-04-20T12:18:27;100072.69;;;19.78;57.00
78909;BME280;68298;37.368;127.108;2023-04-20T12:20:57;100078.91;;;19.77;56.72
78909;BME280;68298;37.368;127.108;2023-04-20T12:23:29;100076.28;;;19.77;57.37
78909;BME280;68298;37.368;127.108;2023-04-20T12:26:06;100073.66;;;19.77;56.63
78909;BME280;68298;37.368;127.108;2023-04-20T12:28:37;100082.38;;;19.78;57.42
78909;BME280;68298;37.368;127.108;2023-04-20T12:31:08;100088.59;;;19.77;56.75
78909;BME280;68298;37.368;127.108;2023-04-20T12:33:38;100091.34;;;19.75;57.15
78909;BME280;68298;37.368;127.108;2023-04-20T12:36:09;100099.09;;;19.77;57.32
78909;BME280;68298;37.368;127.108;2023-04-20T12:38:40;100093.84;;;19.77;56.71
78909;BME280;68298;37.368;127.108;2023-04-20T12:41:14;100104.50;;;19.75;56.75
78909;BME280;68298;37.368;127.108;2023-04-20T12:43:45;100101.88;;;19.75;56.59
78909;BME280;68298;37.368;127.108;2023-04-20T12:46:16;100101.88;;;19.75;57.36
78909;BME280;68298;37.368;127.108;2023-04-20T12:48:47;100106.41;;;19.73;56.88
78909;BME280;68298;37.368;127.108;2023-04-20T12:51:17;100109.88;;;19.73;57.46
78909;BME280;68298;37.368;127.108;2023-04-20T12:53:47;100114.28;;;19.73;56.55
78909;BME280;68298;37.368;127.108;2023-04-20T12:56:18;100113.47;;;19.72;57.41
78909;BME280;68298;37.368;127.108;2023-04-20T12:58:49;100128.25;;;19.73;56.70
78909;BME280;68298;37.368;127.108;2023-04-20T13:01:20;100119.53;;;19.73;56.52
78909;BME280;68298;37.368;127.108;2023-04-20T13:03:51;100129.22;;;19.72;56.75
78909;BME280;68298;37.368;127.108;2023-04-20T13:06:22;100136.28;;;19.72;56.69
78909;BME280;68298;37.368;127.108;2023-04-20T13:08:52;100127.56;;;19.71;56.88
78909;BME280;68298;37.368;127.108;2023-04-20T13:11:22;100132.81;;;19.71;56.29